• Join FlightAware (Why Join?)
  • Login
  • US Flag 
11:23AM EDT


 

Airport Tracker/Info


-or-


 

Live Flight TrackerFlight Track Log ✈ SWA407 ✈ 05-Apr-2013 ✈ KBUF - KBWI

Flight Track Log - Related Links

Times and Time Zones

All times are in EDT time to prevent confusion due to time zone crossing. See the SWA407 flight status page for this flight to view local times or setup timezone preferences in your user account.

Time Position Orientation Groundspeed Altitude Reporting Facility
EDT Latitude Longitude Course Direction KTS MPH feet Rate Location/Type
07:13PM 42.9500 -78.7167 110° East 160 184 1,600  Level Buffalo TRACON
07:15PM 42.9317 -78.6492 110° East 225 259 5,900 2,760 Climbing Cleveland Center
07:16PM 42.8464 -78.6492 180° South 245 282 8,900 3,000 Climbing Cleveland Center
07:17PM 42.7647 -78.6375 174° South 279 321 11,900 3,240 Climbing Cleveland Center
07:18PM 42.6761 -78.5611 148° Southeast 331 381 15,400 3,060 Climbing Cleveland Center
07:19PM 42.5806 -78.4739 146° Southeast 361 415 18,000 2,820 Climbing Cleveland Center
07:20PM 42.4831 -78.3842 146° Southeast 409 471 21,100 2,760 Climbing Cleveland Center
07:21PM 42.3792 -78.2894 146° Southeast 438 504 23,600 1,920 Climbing Cleveland Center
07:22PM 42.2750 -78.1950 146° Southeast 449 517 25,000 480 Climbing Cleveland Center
07:24PM 42.1050 -78.0414 146° Southeast 435 501 25,000  Level New York Center
07:25PM 42.0081 -77.9556 147° Southeast 453 521 25,000  Level New York Center
07:26PM 41.8956 -77.8542 146° Southeast 467 537 25,000  Level New York Center
07:27PM 41.7806 -77.7528 147° Southeast 481 554 25,000  Level New York Center
07:28PM 41.6700 -77.6497 145° Southeast 486 559 25,000  Level New York Center
07:29PM 41.5550 -77.5492 147° Southeast 486 559 25,000 -300 Level New York Center
07:30PM 41.4319 -77.4425 147° Southeast 486 559 24,400 -840 Descending New York Center
07:31PM 41.3186 -77.3456 147° Southeast 486 559 23,400 -1,020 Descending New York Center
07:32PM 41.2114 -77.2497 146° Southeast 480 552 22,400 -1,020 Descending New York Center
07:33PM 41.1058 -77.1569 146° Southeast 470 541 21,400 -1,020 Descending New York Center
07:34PM 41.0022 -77.0675 147° Southeast 456 525 20,400 -1,020 Descending New York Center
07:35PM 40.9025 -76.9842 148° Southeast 446 513 19,400 -1,080 Descending New York Center
07:36PM 40.8047 -76.8986 146° Southeast 429 494 18,300 -1,080 Descending New York Center
07:37PM 40.7183 -76.7975 138° Southeast 422 486 17,300 -1,020 Descending New York Center
07:38PM 40.6336 -76.7000 139° Southeast 422 486 16,400 -1,020 Descending New York Center
07:39PM 40.5514 -76.5944 136° Southeast 411 473 15,300 -660 Descending New York Center
07:40PM 40.4783 -76.5092 138° Southeast 405 466 15,100 -240 Descending New York Center
07:41PM 40.3881 -76.4389 149° Southeast 394 453 14,900 -720 Descending New York Center
07:42PM 40.2844 -76.4658 191° South 341 392 13,800 -1,020 Descending New York Center
07:43PM 40.1881 -76.4797 186° South 352 405 12,900 -600 Descending New York Center
07:45PM 40.0000 -76.5167 189° South 341 392 12,100 -300 Descending Potomac TRACON
07:46PM 39.9167 -76.5333 189° South 341 392 12,100 -120 Level Potomac TRACON
07:47PM 39.8167 -76.5333 180° South 347 399 11,900 -660 Descending Potomac TRACON
07:48PM 39.7333 -76.5000 163° South 331 381 10,800 -1,320 Descending Potomac TRACON
07:49PM 39.6500 -76.4667 163° South 317 365 9,300 -1,320 Descending Potomac TRACON
07:50PM 39.5667 -76.4333 163° South 303 349 8,200 -1,320 Descending Potomac TRACON
07:50PM 39.4833 -76.4167 171° South 290 334 6,900 -1,500 Descending Potomac TRACON
07:51PM 39.4167 -76.3833 159° South 286 329 5,400 -960 Descending Potomac TRACON
07:52PM 39.3333 -76.4167 197° South 271 312 5,000 -240 Descending Potomac TRACON
07:54PM 39.2667 -76.4333 191° South 243 280 5,000 -360 Level Potomac TRACON
07:54PM 39.2000 -76.4667 201° Southwest 236 272 4,300 -900 Descending Potomac TRACON
07:55PM 39.1500 -76.4833 194° South 229 264 3,400 -660 Descending Potomac TRACON
07:56PM 39.0833 -76.5000 191° South 228 262 3,000 -300 Descending Potomac TRACON
07:57PM 39.0500 -76.5333 218° Southwest 176 203 2,900 -420 Descending Potomac TRACON
07:58PM 39.0667 -76.5833 293° West 127 146 2,300 -600 Descending Potomac TRACON
07:59PM 39.1000 -76.6000 339° North 126 145 1,700 -600 Descending Potomac TRACON
08:01PM 39.1333 -76.6333 322° Northwest 121 139 1,000 -660 Descending Potomac TRACON
08:01PM 39.1500 -76.6500 322° Northwest 127 146 400 -720 Descending Potomac TRACON